sensor_id;sensor_type;location;lat;lon;timestamp;P1;durP1;ratioP1;P2;durP2;ratioP2
23171;SDS011;11754;42.664;23.594;2022-10-16T00:01:16;9.32;;;5.53;;
23171;SDS011;11754;42.664;23.594;2022-10-16T00:03:44;10.60;;;5.88;;
23171;SDS011;11754;42.664;23.594;2022-10-16T00:06:10;8.60;;;5.68;;
23171;SDS011;11754;42.664;23.594;2022-10-16T00:08:36;8.23;;;5.47;;
23171;SDS011;11754;42.664;23.594;2022-10-16T00:11:13;9.88;;;5.68;;
23171;SDS011;11754;42.664;23.594;2022-10-16T00:13:44;13.05;;;5.63;;
23171;SDS011;11754;42.664;23.594;2022-10-16T00:16:11;11.32;;;6.00;;
23171;SDS011;11754;42.664;23.594;2022-10-16T00:18:37;6.97;;;5.18;;
23171;SDS011;11754;42.664;23.594;2022-10-16T00:21:07;7.25;;;5.05;;
23171;SDS011;11754;42.664;23.594;2022-10-16T00:23:37;8.45;;;5.75;;
23171;SDS011;11754;42.664;23.594;2022-10-16T00:26:04;8.38;;;5.20;;
23171;SDS011;11754;42.664;23.594;2022-10-16T00:28:32;9.68;;;5.65;;
23171;SDS011;11754;42.664;23.594;2022-10-16T00:30:58;9.77;;;5.82;;
23171;SDS011;11754;42.664;23.594;2022-10-16T00:33:24;10.63;;;5.57;;
23171;SDS011;11754;42.664;23.594;2022-10-16T00:35:49;10.63;;;6.00;;
23171;SDS011;11754;42.664;23.594;2022-10-16T00:38:15;9.32;;;5.75;;
23171;SDS011;11754;42.664;23.594;2022-10-16T00:40:40;8.43;;;5.38;;
23171;SDS011;11754;42.664;23.594;2022-10-16T00:43:12;8.10;;;4.72;;
23171;SDS011;11754;42.664;23.594;2022-10-16T00:45:40;6.55;;;5.03;;
23171;SDS011;11754;42.664;23.594;2022-10-16T00:48:06;7.78;;;4.90;;
23171;SDS011;11754;42.664;23.594;2022-10-16T00:50:37;10.00;;;5.23;;
23171;SDS011;11754;42.664;23.594;2022-10-16T00:53:03;7.95;;;4.70;;
23171;SDS011;11754;42.664;23.594;2022-10-16T00:55:29;8.00;;;5.63;;
23171;SDS011;11754;42.664;23.594;2022-10-16T00:57:55;7.63;;;5.20;;
23171;SDS011;11754;42.664;23.594;2022-10-16T01:00:23;9.40;;;4.85;;
23171;SDS011;11754;42.664;23.594;2022-10-16T01:02:54;7.10;;;4.90;;
23171;SDS011;11754;42.664;23.594;2022-10-16T01:05:26;7.32;;;4.70;;
23171;SDS011;11754;42.664;23.594;2022-10-16T01:08:22;6.70;;;4.30;;
23171;SDS011;11754;42.664;23.594;2022-10-16T01:10:57;8.70;;;4.88;;
23171;SDS011;11754;42.664;23.594;2022-10-16T01:13:36;9.18;;;4.55;;
23171;SDS011;11754;42.664;23.594;2022-10-16T01:18:44;6.13;;;4.35;;
23171;SDS011;11754;42.664;23.594;2022-10-16T01:26:37;7.63;;;4.43;;
23171;SDS011;11754;42.664;23.594;2022-10-16T01:29:16;7.90;;;4.68;;
23171;SDS011;11754;42.664;23.594;2022-10-16T01:31:47;8.40;;;4.72;;
23171;SDS011;11754;42.664;23.594;2022-10-16T01:34:19;8.52;;;4.60;;
23171;SDS011;11754;42.664;23.594;2022-10-16T01:36:54;8.30;;;5.10;;
23171;SDS011;11754;42.664;23.594;2022-10-16T01:39:24;10.00;;;4.80;;
23171;SDS011;11754;42.664;23.594;2022-10-16T01:41:55;9.70;;;5.20;;
23171;SDS011;11754;42.664;23.594;2022-10-16T01:44:29;7.95;;;5.25;;
23171;SDS011;11754;42.664;23.594;2022-10-16T01:46:58;13.02;;;5.97;;
23171;SDS011;11754;42.664;23.594;2022-10-16T01:49:25;9.13;;;5.47;;
23171;SDS011;11754;42.664;23.594;2022-10-16T01:51:55;9.95;;;5.25;;
23171;SDS011;11754;42.664;23.594;2022-10-16T01:54:25;9.88;;;5.95;;
23171;SDS011;11754;42.664;23.594;2022-10-16T01:56:53;11.13;;;5.93;;
23171;SDS011;11754;42.664;23.594;2022-10-16T01:59:21;11.38;;;5.63;;
23171;SDS011;11754;42.664;23.594;2022-10-16T02:01:52;7.65;;;5.40;;
23171;SDS011;11754;42.664;23.594;2022-10-16T02:06:57;7.88;;;5.65;;
23171;SDS011;11754;42.664;23.594;2022-10-16T02:09:23;9.10;;;5.10;;
23171;SDS011;11754;42.664;23.594;2022-10-16T02:11:49;11.15;;;5.30;;
23171;SDS011;11754;42.664;23.594;2022-10-16T02:14:19;8.77;;;5.25;;
23171;SDS011;11754;42.664;23.594;2022-10-16T02:16:45;11.07;;;5.25;;
23171;SDS011;11754;42.664;23.594;2022-10-16T02:19:15;9.05;;;5.15;;
23171;SDS011;11754;42.664;23.594;2022-10-16T02:21:51;9.20;;;5.05;;
23171;SDS011;11754;42.664;23.594;2022-10-16T02:24:34;10.43;;;4.72;;
23171;SDS011;11754;42.664;23.594;2022-10-16T02:27:10;9.18;;;4.82;;
23171;SDS011;11754;42.664;23.594;2022-10-16T02:29:40;7.38;;;4.95;;
23171;SDS011;11754;42.664;23.594;2022-10-16T02:32:10;10.13;;;5.32;;
23171;SDS011;11754;42.664;23.594;2022-10-16T02:34:37;7.88;;;5.40;;
23171;SDS011;11754;42.664;23.594;2022-10-16T02:37:04;8.32;;;5.25;;
23171;SDS011;11754;42.664;23.594;2022-10-16T02:39:31;8.05;;;4.85;;
23171;SDS011;11754;42.664;23.594;2022-10-16T02:41:58;8.13;;;5.28;;
23171;SDS011;11754;42.664;23.594;2022-10-16T02:44:23;7.60;;;5.38;;
23171;SDS011;11754;42.664;23.594;2022-10-16T02:46:49;7.13;;;5.18;;
23171;SDS011;11754;42.664;23.594;2022-10-16T02:49:14;7.03;;;5.13;;
23171;SDS011;11754;42.664;23.594;2022-10-16T02:51:39;9.60;;;5.15;;
23171;SDS011;11754;42.664;23.594;2022-10-16T02:54:05;11.35;;;5.28;;
23171;SDS011;11754;42.664;23.594;2022-10-16T02:56:30;8.82;;;4.95;;
23171;SDS011;11754;42.664;23.594;2022-10-16T02:58:56;7.53;;;5.25;;
23171;SDS011;11754;42.664;23.594;2022-10-16T03:01:22;8.07;;;4.85;;
23171;SDS011;11754;42.664;23.594;2022-10-16T03:03:47;8.90;;;5.10;;
23171;SDS011;11754;42.664;23.594;2022-10-16T03:06:13;9.45;;;5.25;;
23171;SDS011;11754;42.664;23.594;2022-10-16T03:08:38;6.38;;;4.90;;
23171;SDS011;11754;42.664;23.594;2022-10-16T03:11:04;10.13;;;5.32;;
23171;SDS011;11754;42.664;23.594;2022-10-16T03:13:29;6.13;;;4.68;;
23171;SDS011;11754;42.664;23.594;2022-10-16T03:15:54;8.35;;;5.25;;
23171;SDS011;11754;42.664;23.594;2022-10-16T03:18:20;8.05;;;4.80;;
23171;SDS011;11754;42.664;23.594;2022-10-16T03:20:45;6.93;;;5.35;;
23171;SDS011;11754;42.664;23.594;2022-10-16T03:23:11;7.53;;;5.03;;
23171;SDS011;11754;42.664;23.594;2022-10-16T03:25:36;11.57;;;5.18;;
23171;SDS011;11754;42.664;23.594;2022-10-16T03:28:02;9.25;;;5.03;;
23171;SDS011;11754;42.664;23.594;2022-10-16T03:30:28;9.00;;;4.65;;
23171;SDS011;11754;42.664;23.594;2022-10-16T03:32:53;12.50;;;5.53;;
23171;SDS011;11754;42.664;23.594;2022-10-16T03:35:19;12.05;;;7.45;;
23171;SDS011;11754;42.664;23.594;2022-10-16T03:37:45;8.85;;;5.32;;
23171;SDS011;11754;42.664;23.594;2022-10-16T03:40:11;10.48;;;6.00;;
23171;SDS011;11754;42.664;23.594;2022-10-16T03:42:36;11.65;;;5.80;;
23171;SDS011;11754;42.664;23.594;2022-10-16T03:45:02;6.78;;;5.10;;
23171;SDS011;11754;42.664;23.594;2022-10-16T03:47:28;8.55;;;5.70;;
23171;SDS011;11754;42.664;23.594;2022-10-16T03:49:53;7.30;;;5.13;;
23171;SDS011;11754;42.664;23.594;2022-10-16T03:52:19;8.63;;;5.40;;
23171;SDS011;11754;42.664;23.594;2022-10-16T03:54:44;13.52;;;5.88;;
23171;SDS011;11754;42.664;23.594;2022-10-16T03:57:09;12.20;;;5.13;;
23171;SDS011;11754;42.664;23.594;2022-10-16T03:59:35;9.02;;;5.95;;
23171;SDS011;11754;42.664;23.594;2022-10-16T04:02:00;9.68;;;5.13;;
23171;SDS011;11754;42.664;23.594;2022-10-16T04:04:26;8.85;;;5.28;;
23171;SDS011;11754;42.664;23.594;2022-10-16T04:06:51;7.97;;;5.05;;
23171;SDS011;11754;42.664;23.594;2022-10-16T04:09:16;11.52;;;4.90;;
23171;SDS011;11754;42.664;23.594;2022-10-16T04:11:42;8.50;;;5.00;;
23171;SDS011;11754;42.664;23.594;2022-10-16T04:14:07;8.90;;;5.05;;
23171;SDS011;11754;42.664;23.594;2022-10-16T04:16:33;7.63;;;4.80;;
23171;SDS011;11754;42.664;23.594;2022-10-16T04:18:58;11.15;;;5.28;;
23171;SDS011;11754;42.664;23.594;2022-10-16T04:21:23;7.65;;;5.32;;
23171;SDS011;11754;42.664;23.594;2022-10-16T04:23:49;7.28;;;5.40;;
23171;SDS011;11754;42.664;23.594;2022-10-16T04:26:14;9.23;;;7.13;;
23171;SDS011;11754;42.664;23.594;2022-10-16T04:28:40;9.57;;;5.80;;
23171;SDS011;11754;42.664;23.594;2022-10-16T04:31:05;12.02;;;6.50;;
23171;SDS011;11754;42.664;23.594;2022-10-16T04:33:31;8.73;;;6.13;;
23171;SDS011;11754;42.664;23.594;2022-10-16T04:35:58;9.80;;;5.82;;
23171;SDS011;11754;42.664;23.594;2022-10-16T04:38:24;18.15;;;7.93;;
23171;SDS011;11754;42.664;23.594;2022-10-16T04:40:50;12.13;;;7.05;;
23171;SDS011;11754;42.664;23.594;2022-10-16T04:43:15;13.00;;;8.23;;
23171;SDS011;11754;42.664;23.594;2022-10-16T04:45:41;15.95;;;8.82;;
23171;SDS011;11754;42.664;23.594;2022-10-16T04:48:06;15.75;;;6.78;;
23171;SDS011;11754;42.664;23.594;2022-10-16T04:50:31;16.40;;;7.90;;
23171;SDS011;11754;42.664;23.594;2022-10-16T04:52:57;14.40;;;8.20;;
23171;SDS011;11754;42.664;23.594;2022-10-16T04:55:22;16.38;;;8.52;;
23171;SDS011;11754;42.664;23.594;2022-10-16T04:57:48;20.00;;;9.57;;
23171;SDS011;11754;42.664;23.594;2022-10-16T05:00:13;28.55;;;12.60;;
23171;SDS011;11754;42.664;23.594;2022-10-16T05:02:38;31.55;;;13.65;;
23171;SDS011;11754;42.664;23.594;2022-10-16T05:05:04;20.25;;;10.07;;
23171;SDS011;11754;42.664;23.594;2022-10-16T05:07:30;13.65;;;7.50;;
23171;SDS011;11754;42.664;23.594;2022-10-16T05:09:55;30.55;;;10.88;;
23171;SDS011;11754;42.664;23.594;2022-10-16T05:12:21;17.73;;;8.82;;
23171;SDS011;11754;42.664;23.594;2022-10-16T05:14:46;15.15;;;7.25;;
23171;SDS011;11754;42.664;23.594;2022-10-16T05:17:11;11.88;;;6.65;;
23171;SDS011;11754;42.664;23.594;2022-10-16T05:19:37;12.23;;;6.00;;
23171;SDS011;11754;42.664;23.594;2022-10-16T05:22:02;15.70;;;6.82;;
23171;SDS011;11754;42.664;23.594;2022-10-16T05:24:28;10.88;;;6.72;;
23171;SDS011;11754;42.664;23.594;2022-10-16T05:26:53;16.83;;;7.43;;
23171;SDS011;11754;42.664;23.594;2022-10-16T05:29:19;20.23;;;8.73;;
23171;SDS011;11754;42.664;23.594;2022-10-16T05:31:46;15.57;;;7.88;;
23171;SDS011;11754;42.664;23.594;2022-10-16T05:34:11;16.92;;;8.18;;
23171;SDS011;11754;42.664;23.594;2022-10-16T05:36:37;16.00;;;8.07;;
23171;SDS011;11754;42.664;23.594;2022-10-16T05:39:02;14.15;;;9.55;;
23171;SDS011;11754;42.664;23.594;2022-10-16T05:41:28;20.80;;;10.68;;
23171;SDS011;11754;42.664;23.594;2022-10-16T05:43:53;14.18;;;9.38;;
23171;SDS011;11754;42.664;23.594;2022-10-16T05:46:19;13.13;;;7.28;;
23171;SDS011;11754;42.664;23.594;2022-10-16T05:48:44;13.60;;;7.80;;
23171;SDS011;11754;42.664;23.594;2022-10-16T05:51:11;14.50;;;8.75;;
23171;SDS011;11754;42.664;23.594;2022-10-16T05:53:38;15.80;;;8.07;;
23171;SDS011;11754;42.664;23.594;2022-10-16T05:56:05;10.35;;;7.03;;
23171;SDS011;11754;42.664;23.594;2022-10-16T05:58:35;11.20;;;7.20;;
23171;SDS011;11754;42.664;23.594;2022-10-16T06:01:06;10.50;;;6.32;;
23171;SDS011;11754;42.664;23.594;2022-10-16T06:03:42;12.35;;;7.45;;
23171;SDS011;11754;42.664;23.594;2022-10-16T06:06:11;14.20;;;7.10;;
23171;SDS011;11754;42.664;23.594;2022-10-16T06:08:38;11.13;;;7.63;;
23171;SDS011;11754;42.664;23.594;2022-10-16T06:11:05;15.00;;;8.57;;
23171;SDS011;11754;42.664;23.594;2022-10-16T06:13:32;17.33;;;9.57;;
23171;SDS011;11754;42.664;23.594;2022-10-16T06:15:58;15.02;;;10.30;;
23171;SDS011;11754;42.664;23.594;2022-10-16T06:18:25;12.70;;;7.60;;
23171;SDS011;11754;42.664;23.594;2022-10-16T06:20:52;10.27;;;6.60;;
23171;SDS011;11754;42.664;23.594;2022-10-16T06:23:17;12.35;;;7.35;;
23171;SDS011;11754;42.664;23.594;2022-10-16T06:25:43;10.05;;;7.13;;
23171;SDS011;11754;42.664;23.594;2022-10-16T06:28:08;11.50;;;7.55;;
23171;SDS011;11754;42.664;23.594;2022-10-16T06:30:33;15.95;;;9.73;;
23171;SDS011;11754;42.664;23.594;2022-10-16T06:32:59;13.75;;;8.70;;
23171;SDS011;11754;42.664;23.594;2022-10-16T06:35:24;9.90;;;7.90;;
23171;SDS011;11754;42.664;23.594;2022-10-16T06:37:49;12.02;;;7.40;;
23171;SDS011;11754;42.664;23.594;2022-10-16T06:40:15;11.75;;;7.25;;
23171;SDS011;11754;42.664;23.594;2022-10-16T06:42:41;10.43;;;7.18;;
23171;SDS011;11754;42.664;23.594;2022-10-16T06:45:07;9.80;;;7.40;;
23171;SDS011;11754;42.664;23.594;2022-10-16T06:47:32;13.60;;;8.63;;
23171;SDS011;11754;42.664;23.594;2022-10-16T06:49:58;20.45;;;10.35;;
23171;SDS011;11754;42.664;23.594;2022-10-16T06:52:23;14.18;;;8.23;;
23171;SDS011;11754;42.664;23.594;2022-10-16T06:54:49;16.10;;;8.40;;
23171;SDS011;11754;42.664;23.594;2022-10-16T06:57:15;12.88;;;8.23;;
23171;SDS011;11754;42.664;23.594;2022-10-16T06:59:40;11.50;;;7.45;;
23171;SDS011;11754;42.664;23.594;2022-10-16T07:02:05;12.93;;;7.32;;
23171;SDS011;11754;42.664;23.594;2022-10-16T07:04:32;12.20;;;7.45;;
23171;SDS011;11754;42.664;23.594;2022-10-16T07:06:59;9.73;;;7.60;;
23171;SDS011;11754;42.664;23.594;2022-10-16T07:09:25;12.70;;;7.45;;
23171;SDS011;11754;42.664;23.594;2022-10-16T07:11:51;15.02;;;7.53;;
23171;SDS011;11754;42.664;23.594;2022-10-16T07:14:18;15.90;;;8.45;;
23171;SDS011;11754;42.664;23.594;2022-10-16T07:16:44;16.42;;;8.30;;
23171;SDS011;11754;42.664;23.594;2022-10-16T07:19:09;11.18;;;7.18;;
23171;SDS011;11754;42.664;23.594;2022-10-16T07:21:37;13.10;;;8.07;;
23171;SDS011;11754;42.664;23.594;2022-10-16T07:24:03;14.20;;;8.05;;
23171;SDS011;11754;42.664;23.594;2022-10-16T07:26:32;18.83;;;9.18;;
23171;SDS011;11754;42.664;23.594;2022-10-16T07:28:58;12.65;;;7.75;;
23171;SDS011;11754;42.664;23.594;2022-10-16T07:31:24;12.60;;;8.05;;
23171;SDS011;11754;42.664;23.594;2022-10-16T07:33:50;12.55;;;7.40;;
23171;SDS011;11754;42.664;23.594;2022-10-16T07:36:16;10.60;;;6.82;;
23171;SDS011;11754;42.664;23.594;2022-10-16T07:38:43;15.85;;;6.60;;
23171;SDS011;11754;42.664;23.594;2022-10-16T07:41:10;9.68;;;6.00;;
23171;SDS011;11754;42.664;23.594;2022-10-16T07:43:37;9.25;;;6.20;;
23171;SDS011;11754;42.664;23.594;2022-10-16T07:46:03;7.43;;;5.10;;
23171;SDS011;11754;42.664;23.594;2022-10-16T07:48:29;11.63;;;5.50;;
23171;SDS011;11754;42.664;23.594;2022-10-16T07:51:04;7.82;;;5.30;;
23171;SDS011;11754;42.664;23.594;2022-10-16T07:53:31;10.35;;;5.13;;
23171;SDS011;11754;42.664;23.594;2022-10-16T07:56:01;17.27;;;7.50;;
23171;SDS011;11754;42.664;23.594;2022-10-16T07:58:28;12.13;;;6.50;;
23171;SDS011;11754;42.664;23.594;2022-10-16T08:00:55;14.20;;;7.53;;
23171;SDS011;11754;42.664;23.594;2022-10-16T08:03:21;10.05;;;5.57;;
23171;SDS011;11754;42.664;23.594;2022-10-16T08:05:46;6.68;;;4.65;;
23171;SDS011;11754;42.664;23.594;2022-10-16T08:08:13;8.88;;;5.28;;
23171;SDS011;11754;42.664;23.594;2022-10-16T08:10:39;13.57;;;5.28;;
23171;SDS011;11754;42.664;23.594;2022-10-16T08:13:04;57.92;;;42.58;;
23171;SDS011;11754;42.664;23.594;2022-10-16T08:15:30;9.13;;;6.25;;
23171;SDS011;11754;42.664;23.594;2022-10-16T08:17:56;32.40;;;17.17;;
23171;SDS011;11754;42.664;23.594;2022-10-16T08:20:23;17.88;;;9.25;;
23171;SDS011;11754;42.664;23.594;2022-10-16T08:22:49;16.08;;;9.18;;
23171;SDS011;11754;42.664;23.594;2022-10-16T08:25:14;8.45;;;5.03;;
23171;SDS011;11754;42.664;23.594;2022-10-16T08:27:40;9.10;;;4.60;;
23171;SDS011;11754;42.664;23.594;2022-10-16T08:30:05;10.10;;;4.55;;
23171;SDS011;11754;42.664;23.594;2022-10-16T08:32:31;9.60;;;4.57;;
23171;SDS011;11754;42.664;23.594;2022-10-16T08:34:57;5.82;;;4.00;;
23171;SDS011;11754;42.664;23.594;2022-10-16T08:37:22;6.20;;;3.58;;
23171;SDS011;11754;42.664;23.594;2022-10-16T08:39:47;5.72;;;3.63;;
23171;SDS011;11754;42.664;23.594;2022-10-16T08:42:19;8.20;;;3.47;;
23171;SDS011;11754;42.664;23.594;2022-10-16T08:51:01;4.95;;;2.30;;
23171;SDS011;11754;42.664;23.594;2022-10-16T08:53:41;4.50;;;2.20;;
23171;SDS011;11754;42.664;23.594;2022-10-16T08:56:11;6.32;;;2.25;;
23171;SDS011;11754;42.664;23.594;2022-10-16T08:58:36;5.72;;;2.45;;
23171;SDS011;11754;42.664;23.594;2022-10-16T09:01:03;7.18;;;3.38;;
23171;SDS011;11754;42.664;23.594;2022-10-16T09:03:48;2.97;;;1.88;;
23171;SDS011;11754;42.664;23.594;2022-10-16T09:06:45;3.65;;;2.13;;
23171;SDS011;11754;42.664;23.594;2022-10-16T09:19:41;4.30;;;2.00;;
23171;SDS011;11754;42.664;23.594;2022-10-16T09:22:13;2.88;;;1.70;;
23171;SDS011;11754;42.664;23.594;2022-10-16T09:24:41;2.88;;;1.75;;
23171;SDS011;11754;42.664;23.594;2022-10-16T09:27:13;5.00;;;1.98;;
23171;SDS011;11754;42.664;23.594;2022-10-16T09:29:39;3.42;;;1.48;;
23171;SDS011;11754;42.664;23.594;2022-10-16T09:32:12;4.55;;;1.63;;
23171;SDS011;11754;42.664;23.594;2022-10-16T09:34:43;2.85;;;1.60;;
23171;SDS011;11754;42.664;23.594;2022-10-16T09:37:14;4.72;;;1.60;;
23171;SDS011;11754;42.664;23.594;2022-10-16T09:39:50;4.00;;;1.30;;
23171;SDS011;11754;42.664;23.594;2022-10-16T09:42:34;4.28;;;1.67;;
23171;SDS011;11754;42.664;23.594;2022-10-16T09:45:02;3.65;;;1.38;;
23171;SDS011;11754;42.664;23.594;2022-10-16T09:47:28;2.33;;;1.30;;
23171;SDS011;11754;42.664;23.594;2022-10-16T09:49:57;3.30;;;1.30;;
23171;SDS011;11754;42.664;23.594;2022-10-16T09:52:27;4.65;;;1.20;;
23171;SDS011;11754;42.664;23.594;2022-10-16T09:54:54;2.47;;;0.90;;
23171;SDS011;11754;42.664;23.594;2022-10-16T09:57:21;3.03;;;1.27;;
23171;SDS011;11754;42.664;23.594;2022-10-16T09:59:48;4.32;;;1.20;;
23171;SDS011;11754;42.664;23.594;2022-10-16T10:02:16;4.40;;;1.30;;
23171;SDS011;11754;42.664;23.594;2022-10-16T10:04:50;2.53;;;1.10;;
23171;SDS011;11754;42.664;23.594;2022-10-16T10:07:26;4.13;;;1.40;;
23171;SDS011;11754;42.664;23.594;2022-10-16T10:09:53;6.30;;;1.50;;
23171;SDS011;11754;42.664;23.594;2022-10-16T10:14:51;4.20;;;1.30;;
23171;SDS011;11754;42.664;23.594;2022-10-16T10:17:20;2.80;;;1.20;;
23171;SDS011;11754;42.664;23.594;2022-10-16T10:19:49;2.90;;;1.33;;
23171;SDS011;11754;42.664;23.594;2022-10-16T10:22:23;3.67;;;1.10;;
23171;SDS011;11754;42.664;23.594;2022-10-16T10:25:00;3.83;;;1.10;;
23171;SDS011;11754;42.664;23.594;2022-10-16T10:27:47;4.90;;;1.20;;
23171;SDS011;11754;42.664;23.594;2022-10-16T10:36:16;3.55;;;1.15;;
23171;SDS011;11754;42.664;23.594;2022-10-16T10:55:14;3.50;;;1.10;;
23171;SDS011;11754;42.664;23.594;2022-10-16T11:11:56;3.25;;;1.10;;
23171;SDS011;11754;42.664;23.594;2022-10-16T11:14:46;6.82;;;1.33;;
23171;SDS011;11754;42.664;23.594;2022-10-16T11:17:22;3.15;;;1.20;;
23171;SDS011;11754;42.664;23.594;2022-10-16T11:20:34;10.02;;;1.50;;
23171;SDS011;11754;42.664;23.594;2022-10-16T11:25:20;4.75;;;1.10;;
23171;SDS011;11754;42.664;23.594;2022-10-16T11:27:49;16.20;;;1.60;;
23171;SDS011;11754;42.664;23.594;2022-10-16T11:30:26;10.05;;;1.30;;
23171;SDS011;11754;42.664;23.594;2022-10-16T11:35:44;1.88;;;0.90;;
23171;SDS011;11754;42.664;23.594;2022-10-16T11:38:29;5.82;;;1.17;;
23171;SDS011;11754;42.664;23.594;2022-10-16T11:41:05;2.92;;;0.98;;
23171;SDS011;11754;42.664;23.594;2022-10-16T11:43:43;1.27;;;0.70;;
23171;SDS011;11754;42.664;23.594;2022-10-16T11:46:17;1.80;;;1.00;;
23171;SDS011;11754;42.664;23.594;2022-10-16T11:48:48;2.78;;;0.80;;
23171;SDS011;11754;42.664;23.594;2022-10-16T11:56:42;1.60;;;0.85;;
23171;SDS011;11754;42.664;23.594;2022-10-16T11:59:28;2.78;;;1.00;;
23171;SDS011;11754;42.664;23.594;2022-10-16T12:08:06;2.00;;;0.90;;
23171;SDS011;11754;42.664;23.594;2022-10-16T12:10:36;2.37;;;1.20;;
23171;SDS011;11754;42.664;23.594;2022-10-16T12:13:48;3.95;;;0.82;;
23171;SDS011;11754;42.664;23.594;2022-10-16T12:18:41;1.58;;;0.55;;
23171;SDS011;11754;42.664;23.594;2022-10-16T12:21:09;3.20;;;0.80;;
23171;SDS011;11754;42.664;23.594;2022-10-16T12:23:48;1.05;;;0.60;;
23171;SDS011;11754;42.664;23.594;2022-10-16T12:26:26;3.05;;;0.80;;
23171;SDS011;11754;42.664;23.594;2022-10-16T12:28:53;5.88;;;2.25;;
23171;SDS011;11754;42.664;23.594;2022-10-16T12:31:20;2.95;;;1.30;;
23171;SDS011;11754;42.664;23.594;2022-10-16T12:33:57;2.80;;;0.95;;
23171;SDS011;11754;42.664;23.594;2022-10-16T12:36:34;2.55;;;0.85;;
23171;SDS011;11754;42.664;23.594;2022-10-16T12:39:00;1.85;;;0.80;;
23171;SDS011;11754;42.664;23.594;2022-10-16T12:41:30;2.38;;;1.00;;
23171;SDS011;11754;42.664;23.594;2022-10-16T12:43:58;1.88;;;0.80;;
23171;SDS011;11754;42.664;23.594;2022-10-16T12:48:53;1.93;;;0.80;;
23171;SDS011;11754;42.664;23.594;2022-10-16T12:51:50;1.40;;;0.80;;
23171;SDS011;11754;42.664;23.594;2022-10-16T12:54:25;2.53;;;0.95;;
23171;SDS011;11754;42.664;23.594;2022-10-16T13:16:54;5.35;;;1.10;;
23171;SDS011;11754;42.664;23.594;2022-10-16T13:30:09;3.97;;;0.98;;
23171;SDS011;11754;42.664;23.594;2022-10-16T13:32:56;3.55;;;0.88;;
23171;SDS011;11754;42.664;23.594;2022-10-16T13:35:24;1.77;;;0.90;;
23171;SDS011;11754;42.664;23.594;2022-10-16T13:40:50;3.22;;;0.80;;
23171;SDS011;11754;42.664;23.594;2022-10-16T13:43:27;2.75;;;0.90;;
23171;SDS011;11754;42.664;23.594;2022-10-16T13:45:57;2.75;;;0.90;;
23171;SDS011;11754;42.664;23.594;2022-10-16T13:48:25;2.40;;;1.00;;
23171;SDS011;11754;42.664;23.594;2022-10-16T13:53:25;2.75;;;1.02;;
23171;SDS011;11754;42.664;23.594;2022-10-16T13:55:51;3.38;;;1.00;;
23171;SDS011;11754;42.664;23.594;2022-10-16T13:58:16;4.35;;;1.00;;
23171;SDS011;11754;42.664;23.594;2022-10-16T14:00:58;4.82;;;1.15;;
23171;SDS011;11754;42.664;23.594;2022-10-16T14:03:26;5.47;;;1.10;;
23171;SDS011;11754;42.664;23.594;2022-10-16T14:05:54;2.40;;;0.85;;
23171;SDS011;11754;42.664;23.594;2022-10-16T14:08:23;3.67;;;1.08;;
23171;SDS011;11754;42.664;23.594;2022-10-16T14:10:51;2.80;;;1.23;;
23171;SDS011;11754;42.664;23.594;2022-10-16T14:13:31;2.90;;;1.02;;
23171;SDS011;11754;42.664;23.594;2022-10-16T14:16:27;3.92;;;1.40;;
23171;SDS011;11754;42.664;23.594;2022-10-16T14:18:56;4.85;;;1.40;;
23171;SDS011;11754;42.664;23.594;2022-10-16T14:21:24;4.97;;;1.15;;
23171;SDS011;11754;42.664;23.594;2022-10-16T14:23:51;3.70;;;1.30;;
23171;SDS011;11754;42.664;23.594;2022-10-16T14:26:19;5.82;;;1.23;;
23171;SDS011;11754;42.664;23.594;2022-10-16T14:28:48;5.03;;;1.20;;
23171;SDS011;11754;42.664;23.594;2022-10-16T14:31:25;4.20;;;1.40;;
23171;SDS011;11754;42.664;23.594;2022-10-16T14:33:58;2.78;;;1.30;;
23171;SDS011;11754;42.664;23.594;2022-10-16T14:36:24;2.63;;;1.10;;
23171;SDS011;11754;42.664;23.594;2022-10-16T14:38:59;8.77;;;3.38;;
23171;SDS011;11754;42.664;23.594;2022-10-16T14:41:28;3.75;;;1.30;;
23171;SDS011;11754;42.664;23.594;2022-10-16T14:43:56;3.58;;;1.20;;
23171;SDS011;11754;42.664;23.594;2022-10-16T14:46:33;3.08;;;1.38;;
23171;SDS011;11754;42.664;23.594;2022-10-16T14:51:36;6.65;;;1.77;;
23171;SDS011;11754;42.664;23.594;2022-10-16T14:54:03;4.50;;;2.30;;
23171;SDS011;11754;42.664;23.594;2022-10-16T14:56:51;7.22;;;1.70;;
23171;SDS011;11754;42.664;23.594;2022-10-16T14:59:24;4.00;;;2.25;;
23171;SDS011;11754;42.664;23.594;2022-10-16T15:01:53;11.60;;;2.45;;
23171;SDS011;11754;42.664;23.594;2022-10-16T15:04:19;10.55;;;2.80;;
23171;SDS011;11754;42.664;23.594;2022-10-16T15:06:44;4.15;;;1.77;;
23171;SDS011;11754;42.664;23.594;2022-10-16T15:09:10;5.13;;;1.67;;
23171;SDS011;11754;42.664;23.594;2022-10-16T15:11:35;4.30;;;1.80;;
23171;SDS011;11754;42.664;23.594;2022-10-16T15:14:01;6.07;;;2.20;;
23171;SDS011;11754;42.664;23.594;2022-10-16T15:16:28;3.55;;;2.42;;
23171;SDS011;11754;42.664;23.594;2022-10-16T15:18:54;7.25;;;2.70;;
23171;SDS011;11754;42.664;23.594;2022-10-16T15:21:27;7.35;;;3.20;;
23171;SDS011;11754;42.664;23.594;2022-10-16T15:23:54;6.55;;;2.85;;
23171;SDS011;11754;42.664;23.594;2022-10-16T15:26:21;5.05;;;2.33;;
23171;SDS011;11754;42.664;23.594;2022-10-16T15:28:47;7.65;;;2.90;;
23171;SDS011;11754;42.664;23.594;2022-10-16T15:31:13;5.28;;;2.80;;
23171;SDS011;11754;42.664;23.594;2022-10-16T15:33:38;7.07;;;3.10;;
23171;SDS011;11754;42.664;23.594;2022-10-16T15:36:04;9.55;;;3.88;;
23171;SDS011;11754;42.664;23.594;2022-10-16T15:38:29;7.80;;;3.47;;
23171;SDS011;11754;42.664;23.594;2022-10-16T15:40:55;7.63;;;3.42;;
23171;SDS011;11754;42.664;23.594;2022-10-16T15:43:21;10.82;;;4.88;;
23171;SDS011;11754;42.664;23.594;2022-10-16T15:45:52;9.57;;;4.85;;
23171;SDS011;11754;42.664;23.594;2022-10-16T15:48:25;8.88;;;5.22;;
23171;SDS011;11754;42.664;23.594;2022-10-16T15:50:50;15.82;;;6.45;;
23171;SDS011;11754;42.664;23.594;2022-10-16T15:53:16;46.13;;;33.33;;
23171;SDS011;11754;42.664;23.594;2022-10-16T15:55:41;20.15;;;13.70;;
23171;SDS011;11754;42.664;23.594;2022-10-16T15:58:06;15.82;;;8.50;;
23171;SDS011;11754;42.664;23.594;2022-10-16T16:00:32;17.65;;;10.63;;
23171;SDS011;11754;42.664;23.594;2022-10-16T16:02:57;30.45;;;21.42;;
23171;SDS011;11754;42.664;23.594;2022-10-16T16:05:23;19.50;;;10.90;;
23171;SDS011;11754;42.664;23.594;2022-10-16T16:07:49;13.30;;;7.00;;
23171;SDS011;11754;42.664;23.594;2022-10-16T16:10:15;14.10;;;7.57;;
23171;SDS011;11754;42.664;23.594;2022-10-16T16:12:40;13.68;;;9.70;;
23171;SDS011;11754;42.664;23.594;2022-10-16T16:15:07;21.95;;;13.63;;
23171;SDS011;11754;42.664;23.594;2022-10-16T16:17:34;32.05;;;18.63;;
23171;SDS011;11754;42.664;23.594;2022-10-16T16:20:00;28.90;;;17.27;;
23171;SDS011;11754;42.664;23.594;2022-10-16T16:22:26;27.33;;;12.77;;
23171;SDS011;11754;42.664;23.594;2022-10-16T16:24:52;15.88;;;9.38;;
23171;SDS011;11754;42.664;23.594;2022-10-16T16:27:18;14.50;;;6.85;;
23171;SDS011;11754;42.664;23.594;2022-10-16T16:29:44;14.60;;;4.05;;
23171;SDS011;11754;42.664;23.594;2022-10-16T16:32:10;9.07;;;6.57;;
23171;SDS011;11754;42.664;23.594;2022-10-16T16:34:35;12.93;;;6.30;;
23171;SDS011;11754;42.664;23.594;2022-10-16T16:37:01;15.77;;;6.90;;
23171;SDS011;11754;42.664;23.594;2022-10-16T16:39:27;17.38;;;6.35;;
23171;SDS011;11754;42.664;23.594;2022-10-16T16:41:52;19.92;;;8.35;;
23171;SDS011;11754;42.664;23.594;2022-10-16T16:44:19;20.63;;;9.00;;